Time;durP1;ratioP1;P1;durP2;ratioP2;P2;SDS_P1;SDS_P2;PMS_P1;PMS_P2;Temp;Humidity;BMP_temperature;BMP_pressure;BME280_temperature;BME280_humidity;BME280_pressure;Samples;Min_cycle;Max_cycle;Signal;HPM_P1;HPM_P2
2023/10/01 00:01:46;;;;;;;0.22;0.22;;;13.70;99.90;;;;;;5096852;28;20085;-78
2023/10/01 00:04:12;;;;;;;1.85;0.73;;;13.60;99.90;;;;;;5086489;28;20127;-79
2023/10/01 00:06:39;;;;;;;1.25;0.88;;;13.60;99.90;;;;;;5105675;28;20089;-78
2023/10/01 00:09:09;;;;;;;0.70;0.70;;;13.60;99.90;;;;;;5105277;28;20047;-78
2023/10/01 00:11:38;;;;;;;0.43;0.28;;;13.60;99.90;;;;;;5088055;28;20074;-78
2023/10/01 00:14:08;;;;;;;0.65;0.40;;;13.50;99.90;;;;;;5108375;28;20035;-78
2023/10/01 00:16:37;;;;;;;0.10;0.10;;;13.40;1.00;;;;;;5099542;28;20048;-78
2023/10/01 00:19:04;;;;;;;6.22;1.17;;;13.40;1.00;;;;;;5108091;28;20061;-78
2023/10/01 00:21:29;;;;;;;0.32;0.32;;;13.30;1.00;;;;;;5108451;28;20342;-78
2023/10/01 00:23:55;;;;;;;0.60;0.50;;;13.20;1.00;;;;;;5104633;28;20088;-78
2023/10/01 00:26:22;;;;;;;1.48;0.90;;;13.10;1.00;;;;;;5105009;28;20077;-78
2023/10/01 00:28:50;;;;;;;0.00;0.00;;;13.10;1.00;;;;;;5104496;28;20040;-78
2023/10/01 00:31:17;;;;;;;0.75;0.35;;;13.00;1.00;;;;;;5109148;28;20047;-78
2023/10/01 00:33:43;;;;;;;3.67;1.02;;;13.00;1.00;;;;;;5107286;28;20039;-79
2023/10/01 00:36:09;;;;;;;2.67;0.40;;;13.10;1.00;;;;;;5104504;28;20543;-78
2023/10/01 00:38:35;;;;;;;6.40;0.65;;;12.90;99.90;;;;;;5104320;28;20123;-78
2023/10/01 00:41:00;;;;;;;2.05;0.75;;;12.80;99.90;;;;;;5114268;28;20071;-78
2023/10/01 00:43:29;;;;;;;0.60;0.52;;;12.90;99.90;;;;;;5111701;28;20043;-78
2023/10/01 00:45:56;;;;;;;0.90;0.65;;;12.90;99.90;;;;;;5104346;28;20036;-78
2023/10/01 00:48:22;;;;;;;1.02;0.68;;;13.00;99.90;;;;;;5112894;28;20048;-78
2023/10/01 00:50:54;;;;;;;2.10;1.13;;;13.10;99.90;;;;;;5111234;28;20089;-78
2023/10/01 00:53:21;;;;;;;1.10;1.00;;;13.20;99.90;;;;;;5106068;28;20516;-78
2023/10/01 00:55:48;;;;;;;0.95;0.68;;;13.20;99.90;;;;;;5104716;28;20114;-78
2023/10/01 00:58:18;;;;;;;3.83;1.65;;;13.30;99.90;;;;;;5105166;28;20052;-78
2023/10/01 01:00:45;;;;;;;1.25;0.57;;;13.30;99.90;;;;;;5107808;28;20488;-78
2023/10/01 01:03:19;;;;;;;0.52;0.45;;;13.40;99.90;;;;;;5107588;28;20051;-78
2023/10/01 01:06:04;;;;;;;0.00;0.00;;;13.40;99.90;;;;;;5099883;28;20479;-78
2023/10/01 01:08:33;;;;;;;3.45;0.65;;;13.40;99.90;;;;;;5105664;28;20039;-78
2023/10/01 01:11:01;;;;;;;4.47;2.35;;;13.40;99.90;;;;;;5103824;28;20086;-78
2023/10/01 01:13:30;;;;;;;1.08;0.98;;;13.40;99.90;;;;;;5085601;28;20481;-78
2023/10/01 01:16:00;;;;;;;0.30;0.30;;;13.20;99.90;;;;;;5107417;28;20035;-78
2023/10/01 01:18:33;;;;;;;1.25;1.05;;;13.20;99.90;;;;;;5108805;28;20032;-78
2023/10/01 01:21:05;;;;;;;1.63;1.52;;;13.20;99.90;;;;;;5096642;28;20040;-78
2023/10/01 01:23:31;;;;;;;0.55;0.55;;;13.10;99.90;;;;;;5096248;28;20040;-78
2023/10/01 01:25:57;;;;;;;1.30;0.77;;;13.10;99.90;;;;;;5103558;28;20040;-78
2023/10/01 01:29:17;;;;;;;0.73;0.68;;;13.00;99.90;;;;;;5101796;28;20085;-78
2023/10/01 01:31:12;;;;;;;5.97;2.50;;;12.90;99.90;;;;;;5075175;28;20044;-78
2023/10/01 01:33:40;;;;;;;2.30;0.77;;;12.80;99.90;;;;;;5103775;28;20040;-78
2023/10/01 01:36:12;;;;;;;0.38;0.38;;;12.70;99.90;;;;;;5114134;28;20043;-78
2023/10/01 01:39:10;;;;;;;1.85;0.63;;;12.60;99.90;;;;;;5106616;28;20047;-78
2023/10/01 01:41:42;;;;;;;1.30;1.20;;;12.60;99.90;;;;;;5091802;28;20475;-78
2023/10/01 01:44:14;;;;;;;2.28;1.13;;;12.50;99.90;;;;;;5104838;28;20111;-78
2023/10/01 01:46:49;;;;;;;0.45;0.45;;;12.40;1.00;;;;;;5106267;28;20478;-78
2023/10/01 01:49:19;;;;;;;1.45;0.57;;;12.40;1.00;;;;;;5104560;28;20531;-78
2023/10/01 01:51:59;;;;;;;0.50;0.45;;;12.40;1.00;;;;;;5091036;28;20046;-78
2023/10/01 01:54:27;;;;;;;0.73;0.73;;;12.40;1.00;;;;;;5085604;28;20055;-78
2023/10/01 01:56:55;;;;;;;0.95;0.85;;;12.60;1.00;;;;;;5103026;28;20044;-78
2023/10/01 01:59:24;;;;;;;1.60;1.15;;;12.70;1.00;;;;;;5104091;28;20052;-78
2023/10/01 02:01:50;;;;;;;0.77;0.52;;;12.70;1.00;;;;;;5106036;28;20055;-78
2023/10/01 02:04:16;;;;;;;2.03;0.90;;;12.90;1.00;;;;;;5105522;28;20407;-78
2023/10/01 02:06:42;;;;;;;1.10;1.00;;;13.20;1.00;;;;;;5094330;28;20047;-78
2023/10/01 02:09:12;;;;;;;1.40;1.27;;;13.00;1.00;;;;;;5103009;28;20044;-78
2023/10/01 02:11:38;;;;;;;0.08;0.08;;;13.10;1.00;;;;;;5087067;28;20055;-78
2023/10/01 02:14:05;;;;;;;0.85;0.85;;;13.20;1.00;;;;;;5106110;28;20039;-78
2023/10/01 02:16:35;;;;;;;1.35;0.47;;;13.30;1.00;;;;;;5081397;28;20056;-78
2023/10/01 02:19:14;;;;;;;0.73;0.55;;;13.50;99.90;;;;;;5102937;28;20503;-78
2023/10/01 02:22:00;;;;;;;0.43;0.30;;;13.40;99.90;;;;;;5103620;28;20044;-78
2023/10/01 02:24:45;;;;;;;4.32;1.90;;;13.40;99.90;;;;;;5108141;28;20390;-78
2023/10/01 02:27:24;;;;;;;0.30;0.30;;;13.50;99.90;;;;;;5100114;28;20031;-78
2023/10/01 02:32:35;;;;;;;1.30;1.13;;;13.50;99.90;;;;;;5102154;28;20546;-78
2023/10/01 02:35:33;;;;;;;1.75;1.05;;;13.50;99.90;;;;;;5104438;28;20517;-78
2023/10/01 02:37:48;;;;;;;0.70;0.63;;;13.50;99.90;;;;;;5105647;28;20048;-78
2023/10/01 02:40:17;;;;;;;6.43;1.98;;;13.50;99.90;;;;;;5102409;28;20052;-78
2023/10/01 02:42:45;;;;;;;1.83;1.13;;;13.60;99.90;;;;;;5101974;28;20043;-78
2023/10/01 02:45:30;;;;;;;0.73;0.73;;;13.60;99.90;;;;;;5104754;28;20048;-78
2023/10/01 02:48:13;;;;;;;0.63;0.52;;;13.60;99.90;;;;;;5087212;28;20055;-78
2023/10/01 02:50:40;;;;;;;0.47;0.40;;;13.60;99.90;;;;;;5101033;28;20515;-78
2023/10/01 02:53:08;;;;;;;1.08;0.65;;;13.60;99.90;;;;;;5104648;28;20127;-78
2023/10/01 02:55:34;;;;;;;1.00;0.98;;;13.70;99.90;;;;;;5084214;28;20131;-78
2023/10/01 02:58:18;;;;;;;2.85;1.00;;;13.80;99.90;;;;;;5109892;28;20043;-78
2023/10/01 03:00:50;;;;;;;1.48;0.95;;;13.80;99.90;;;;;;5095225;28;20097;-78
2023/10/01 03:03:17;;;;;;;2.25;1.60;;;13.80;99.90;;;;;;5102114;28;20417;-78
2023/10/01 03:05:49;;;;;;;0.55;0.28;;;13.80;99.90;;;;;;5105211;28;20046;-78
2023/10/01 03:11:02;;;;;;;0.60;0.38;;;13.80;99.90;;;;;;5095151;28;20480;-78
2023/10/01 03:13:30;;;;;;;0.90;0.90;;;13.80;99.90;;;;;;5101818;28;20489;-78
2023/10/01 03:18:46;;;;;;;2.10;0.73;;;13.80;99.90;;;;;;5103105;28;20511;-78
2023/10/01 03:21:19;;;;;;;0.30;0.30;;;13.80;99.90;;;;;;5101900;28;20051;-78
2023/10/01 03:23:54;;;;;;;14.02;2.95;;;14.10;99.90;;;;;;5103082;28;20044;-78
2023/10/01 03:26:21;;;;;;;0.98;0.68;;;13.90;99.90;;;;;;5105120;28;20032;-78
2023/10/01 03:31:31;;;;;;;2.05;0.65;;;14.00;70.40;;;;;;5105085;28;20086;-78
2023/10/01 03:33:58;;;;;;;0.70;0.63;;;13.90;94.20;;;;;;5102636;28;20504;-78
2023/10/01 03:36:25;;;;;;;2.70;0.77;;;13.90;98.80;;;;;;5101722;28;20096;-78
2023/10/01 03:38:57;;;;;;;2.47;1.33;;;13.90;99.90;;;;;;5101834;28;20051;-78
2023/10/01 03:41:24;;;;;;;1.23;0.90;;;13.90;99.90;;;;;;5109138;28;20040;-78
2023/10/01 03:43:52;;;;;;;7.35;2.92;;;14.00;99.70;;;;;;5109598;28;20059;-78
2023/10/01 03:48:58;;;;;;;0.93;0.93;;;14.10;17.30;;;;;;5100435;28;20044;-78
2023/10/01 03:51:29;;;;;;;4.97;1.90;;;14.10;1.00;;;;;;5097200;28;20047;-78
2023/10/01 03:53:59;;;;;;;2.65;1.63;;;14.10;1.00;;;;;;5105109;28;20047;-78
2023/10/01 03:56:30;;;;;;;1.67;1.13;;;14.10;1.00;;;;;;5086906;28;20040;-78
2023/10/01 03:58:56;;;;;;;0.65;0.65;;;14.10;1.00;;;;;;5105122;28;20490;-78
2023/10/01 04:01:33;;;;;;;3.05;1.27;;;14.10;1.00;;;;;;5096722;28;20072;-78
2023/10/01 04:04:00;;;;;;;2.83;1.20;;;14.20;1.00;;;;;;5104495;28;20036;-78
2023/10/01 04:06:27;;;;;;;1.23;1.13;;;14.20;1.00;;;;;;5095848;28;20071;-77
2023/10/01 04:08:55;;;;;;;2.35;1.40;;;14.20;1.00;;;;;;5104581;28;20043;-77
2023/10/01 04:11:41;;;;;;;0.43;0.43;;;14.20;99.90;;;;;;5104140;28;20154;-78
2023/10/01 04:14:17;;;;;;;2.60;1.83;;;14.10;1.00;;;;;;5095596;28;20044;-77
2023/10/01 04:16:46;;;;;;;0.73;0.70;;;14.20;1.00;;;;;;5109920;28;20032;-78
2023/10/01 04:19:13;;;;;;;1.33;1.23;;;14.20;99.90;;;;;;5101665;28;20067;-78
2023/10/01 04:21:43;;;;;;;5.68;1.90;;;14.20;99.90;;;;;;5110089;28;20040;-78
2023/10/01 04:24:09;;;;;;;3.13;2.05;;;14.20;99.90;;;;;;5102703;28;20130;-78
2023/10/01 04:26:35;;;;;;;3.17;0.75;;;14.20;99.90;;;;;;5112669;28;20126;-78
2023/10/01 04:29:01;;;;;;;2.45;0.50;;;14.20;99.90;;;;;;5106235;28;20494;-78
2023/10/01 04:31:42;;;;;;;0.88;0.52;;;14.20;99.90;;;;;;5111705;28;20059;-78
2023/10/01 04:34:11;;;;;;;1.77;1.20;;;14.30;99.90;;;;;;5096729;28;20081;-78
2023/10/01 04:36:44;;;;;;;0.55;0.55;;;14.20;99.90;;;;;;5104458;28;20036;-78
2023/10/01 04:39:11;;;;;;;0.28;0.28;;;14.20;99.90;;;;;;5107671;28;20386;-78
2023/10/01 04:41:37;;;;;;;0.68;0.60;;;14.20;99.90;;;;;;5107630;28;20077;-78
2023/10/01 04:44:07;;;;;;;0.93;0.82;;;14.50;99.90;;;;;;5099256;28;20054;-78
2023/10/01 04:46:37;;;;;;;0.93;0.82;;;14.20;99.90;;;;;;5116695;28;20114;-78
2023/10/01 04:49:26;;;;;;;2.03;1.05;;;14.20;99.90;;;;;;5107312;28;20031;-78
2023/10/01 04:51:53;;;;;;;0.85;0.52;;;14.20;99.90;;;;;;5085911;28;20060;-77
2023/10/01 04:54:21;;;;;;;2.03;1.75;;;14.20;99.90;;;;;;5106647;28;20040;-78
2023/10/01 04:56:50;;;;;;;1.08;0.73;;;14.20;99.90;;;;;;5107492;28;20050;-78
2023/10/01 04:59:18;;;;;;;2.83;1.17;;;14.30;99.90;;;;;;5111367;28;20441;-78
2023/10/01 05:01:44;;;;;;;1.00;0.90;;;14.30;99.90;;;;;;5103704;28;20066;-78
2023/10/01 05:04:14;;;;;;;5.80;2.67;;;14.50;99.90;;;;;;5107085;28;20548;-78
2023/10/01 05:06:43;;;;;;;2.25;1.17;;;14.30;99.90;;;;;;5107121;28;20047;-78
2023/10/01 05:09:09;;;;;;;1.30;0.77;;;14.30;99.90;;;;;;5108181;28;20046;-78
2023/10/01 05:11:35;;;;;;;6.32;1.73;;;14.40;99.90;;;;;;5107336;28;20116;-78
2023/10/01 05:14:04;;;;;;;0.57;0.47;;;14.30;99.90;;;;;;5091486;28;20480;-78
2023/10/01 05:16:32;;;;;;;0.88;0.35;;;14.30;99.90;;;;;;5112443;28;20044;-78
2023/10/01 05:19:10;;;;;;;0.68;0.63;;;15.20;99.90;;;;;;5103743;28;20048;-78
2023/10/01 05:21:49;;;;;;;2.22;1.13;;;14.20;99.90;;;;;;5095483;28;20051;-78
2023/10/01 05:24:34;;;;;;;0.80;0.40;;;14.30;99.90;;;;;;5103364;28;20047;-78
2023/10/01 05:27:08;;;;;;;1.77;1.67;;;13.90;99.90;;;;;;5098195;28;20062;-77
2023/10/01 05:29:34;;;;;;;2.97;1.35;;;14.00;1.00;;;;;;5105015;28;20436;-77
2023/10/01 05:32:01;;;;;;;1.33;1.15;;;13.80;1.00;;;;;;5106654;28;20046;-77
2023/10/01 05:34:28;;;;;;;0.45;0.40;;;13.80;25.90;;;;;;5106285;28;20051;-77
2023/10/01 05:37:08;;;;;;;0.50;0.47;;;13.70;99.90;;;;;;5102336;28;20467;-77
2023/10/01 05:39:55;;;;;;;1.60;1.50;;;13.70;99.90;;;;;;5103574;28;20622;-77
2023/10/01 05:42:28;;;;;;;0.47;0.45;;;13.60;99.90;;;;;;5106612;28;20046;-77
2023/10/01 05:44:55;;;;;;;1.95;1.02;;;13.60;99.90;;;;;;5103702;28;20511;-77
2023/10/01 05:47:22;;;;;;;0.10;0.10;;;13.60;99.90;;;;;;5085175;28;20036;-78
2023/10/01 05:49:53;;;;;;;0.85;0.55;;;13.70;99.90;;;;;;5104839;28;20052;-78
2023/10/01 05:52:20;;;;;;;0.30;0.28;;;13.60;99.90;;;;;;5105273;28;20443;-79
2023/10/01 05:54:52;;;;;;;3.22;2.42;;;13.70;99.90;;;;;;5105491;28;20040;-78
2023/10/01 05:57:21;;;;;;;1.15;1.05;;;13.70;99.90;;;;;;5107869;28;20439;-78
2023/10/01 05:59:57;;;;;;;10.80;0.60;;;13.60;1.00;;;;;;5108698;28;20044;-78
2023/10/01 06:03:08;;;;;;;0.80;0.73;;;13.60;1.00;;;;;;5097674;28;20096;-78
2023/10/01 06:08:17;;;;;;;1.42;1.30;;;13.50;2.80;;;;;;5071723;28;20040;-79
2023/10/01 06:11:04;;;;;;;1.85;0.90;;;13.50;1.00;;;;;;5111167;28;20048;-79
2023/10/01 06:13:31;;;;;;;0.47;0.47;;;13.50;54.10;;;;;;5078395;28;20047;-79
2023/10/01 06:16:16;;;;;;;1.35;0.95;;;13.70;91.40;;;;;;5105576;28;20040;-78
2023/10/01 06:18:52;;;;;;;4.40;0.98;;;13.50;99.90;;;;;;5098936;28;20097;-79
2023/10/01 06:21:24;;;;;;;0.60;0.45;;;13.50;99.90;;;;;;5105743;28;20416;-79
2023/10/01 06:23:52;;;;;;;2.25;1.17;;;13.60;99.90;;;;;;5108549;28;20039;-78
2023/10/01 06:26:33;;;;;;;0.73;0.73;;;13.60;99.90;;;;;;5109025;28;20503;-80
2023/10/01 06:29:02;;;;;;;0.20;0.15;;;13.70;99.90;;;;;;5104856;28;20032;-78
2023/10/01 06:34:19;;;;;;;0.20;0.20;;;13.80;99.90;;;;;;5103659;28;20047;-78
2023/10/01 06:36:45;;;;;;;0.40;0.40;;;13.80;99.90;;;;;;5106212;28;20570;-78
2023/10/01 06:39:20;;;;;;;2.30;0.85;;;13.90;99.90;;;;;;5105459;28;20438;-78
2023/10/01 06:41:49;;;;;;;0.70;0.60;;;13.90;99.90;;;;;;5107162;28;20074;-78
2023/10/01 06:44:15;;;;;;;0.32;0.32;;;13.90;99.90;;;;;;5109163;28;20043;-79
2023/10/01 06:46:41;;;;;;;0.65;0.63;;;13.90;99.90;;;;;;5107378;28;20530;-79
2023/10/01 06:49:08;;;;;;;0.65;0.65;;;13.90;99.90;;;;;;5104580;28;20036;-79
2023/10/01 06:51:44;;;;;;;1.88;0.80;;;14.00;99.90;;;;;;5106215;28;20400;-79
2023/10/01 06:54:13;;;;;;;;;;;14.10;99.90;;;;;;5082757;28;20047;-79
2023/10/01 06:56:47;;;;;;;1.70;0.82;;;14.20;99.90;;;;;;5103150;28;19920;-79
2023/10/01 06:59:13;;;;;;;0.38;0.38;;;14.30;15.40;;;;;;5090670;28;20070;-79
2023/10/01 07:01:47;;;;;;;3.10;1.13;;;14.30;10.60;;;;;;5071361;28;20141;-79
2023/10/01 07:04:20;;;;;;;1.85;1.45;;;14.40;25.60;;;;;;5109271;28;20036;-80
2023/10/01 07:06:54;;;;;;;3.50;0.65;;;14.40;1.00;;;;;;5110313;28;20043;-79
2023/10/01 07:09:34;;;;;;;2.70;1.33;;;14.50;1.00;;;;;;5105773;28;20032;-79
2023/10/01 07:12:01;;;;;;;2.03;0.55;;;14.80;15.70;;;;;;5099216;28;20053;-79
2023/10/01 07:14:38;;;;;;;0.93;0.93;;;14.50;1.00;;;;;;5106418;28;20477;-79
2023/10/01 07:17:08;;;;;;;0.57;0.47;;;14.60;1.00;;;;;;5105682;28;20032;-79
2023/10/01 07:19:35;;;;;;;1.75;1.25;;;14.70;1.00;;;;;;5106445;28;20051;-79
2023/10/01 07:22:06;;;;;;;1.25;1.08;;;14.70;1.00;;;;;;5113652;28;20515;-79
2023/10/01 07:24:33;;;;;;;2.45;1.98;;;14.80;1.00;;;;;;5107661;28;20093;-80
2023/10/01 07:27:06;;;;;;;0.65;0.65;;;14.80;1.00;;;;;;5107151;28;20097;-79
2023/10/01 07:29:39;;;;;;;3.22;1.15;;;14.90;1.00;;;;;;5117337;28;20048;-79
2023/10/01 07:32:09;;;;;;;0.95;0.80;;;15.10;1.00;;;;;;5109576;28;20522;-79
2023/10/01 07:34:42;;;;;;;0.08;0.08;;;14.90;1.00;;;;;;5107532;28;20160;-79
2023/10/01 07:37:08;;;;;;;0.85;0.55;;;14.80;1.00;;;;;;5105684;28;20032;-79
2023/10/01 07:39:40;;;;;;;1.15;1.05;;;14.90;1.00;;;;;;5108454;28;20404;-79
2023/10/01 07:42:05;;;;;;;0.82;0.75;;;15.00;1.00;;;;;;5110036;28;20069;-79
2023/10/01 07:44:36;;;;;;;0.88;0.70;;;15.40;99.90;;;;;;5095017;28;20041;-80
2023/10/01 07:47:03;;;;;;;0.30;0.28;;;15.30;99.90;;;;;;5092889;28;20083;-79
2023/10/01 07:49:46;;;;;;;0.57;0.40;;;15.30;99.90;;;;;;5103618;28;20101;-79
2023/10/01 07:52:13;;;;;;;1.02;0.93;;;15.40;99.90;;;;;;5104313;28;20438;-79
2023/10/01 07:54:39;;;;;;;1.25;1.08;;;15.40;99.90;;;;;;5112297;28;20099;-80
2023/10/01 07:57:08;;;;;;;3.83;1.67;;;15.60;99.90;;;;;;5099613;28;20079;-79
2023/10/01 07:59:34;;;;;;;1.38;0.98;;;15.70;99.90;;;;;;5092265;28;20064;-80
2023/10/01 08:04:51;;;;;;;2.07;1.40;;;15.70;1.00;;;;;;5103702;28;20051;-78
2023/10/01 08:07:18;;;;;;;5.95;1.77;;;15.60;32.60;;;;;;5110125;28;20284;-79
2023/10/01 08:09:54;;;;;;;2.92;0.85;;;15.50;1.00;;;;;;5112367;28;20495;-79
2023/10/01 08:12:28;;;;;;;2.25;1.10;;;15.60;10.80;;;;;;5107241;28;20400;-79
2023/10/01 08:17:43;;;;;;;0.95;0.85;;;15.40;14.80;;;;;;5107686;28;20138;-79
2023/10/01 08:20:21;;;;;;;0.75;0.75;;;15.40;99.90;;;;;;5113345;28;20062;-80
2023/10/01 08:25:42;;;;;;;1.92;0.75;;;15.60;99.90;;;;;;5111402;28;20421;-80
2023/10/01 08:30:39;;;;;;;0.95;0.63;;;15.70;99.90;;;;;;5109030;28;20167;-79
2023/10/01 08:33:22;;;;;;;0.43;0.43;;;15.80;99.90;;;;;;5107584;28;20641;-79
2023/10/01 08:36:01;;;;;;;8.82;1.40;;;15.90;1.00;;;;;;5099470;28;20590;-79
2023/10/01 08:38:36;;;;;;;2.40;1.55;;;16.10;99.90;;;;;;5108416;28;20040;-79
2023/10/01 08:41:05;;;;;;;0.28;0.28;;;16.30;64.90;;;;;;5111246;28;20126;-80
2023/10/01 08:43:35;;;;;;;1.30;1.20;;;16.60;99.90;;;;;;5110500;28;20062;-79
2023/10/01 08:46:15;;;;;;;0.73;0.45;;;16.80;4.90;;;;;;5103329;28;20035;-79
2023/10/01 08:48:43;;;;;;;0.90;0.63;;;17.10;99.90;;;;;;5091566;28;20078;-79
2023/10/01 08:51:12;;;;;;;0.68;0.60;;;17.20;99.90;;;;;;5112905;28;20047;-79
2023/10/01 08:53:41;;;;;;;2.35;0.80;;;17.50;1.00;;;;;;5102207;28;20051;-79
2023/10/01 08:56:13;;;;;;;1.83;0.63;;;17.50;99.90;;;;;;5107675;28;20044;-79
2023/10/01 08:58:48;;;;;;;0.30;0.30;;;17.60;99.90;;;;;;5107685;28;20044;-79
2023/10/01 09:01:19;;;;;;;2.17;1.48;;;17.60;99.90;;;;;;5100127;28;20040;-79
2023/10/01 09:03:50;;;;;;;3.38;1.35;;;17.80;99.90;;;;;;5106716;28;20040;-78
2023/10/01 09:06:26;;;;;;;0.32;0.32;;;18.00;99.90;;;;;;5098527;28;20036;-79
2023/10/01 09:08:55;;;;;;;6.70;0.70;;;18.40;99.90;;;;;;5087985;28;20048;-79
2023/10/01 09:11:35;;;;;;;1.35;0.75;;;18.70;99.90;;;;;;5106402;28;20052;-78
2023/10/01 09:14:25;;;;;;;0.77;0.77;;;18.90;99.90;;;;;;5115100;28;20043;-79
2023/10/01 09:17:00;;;;;;;2.65;0.85;;;19.00;73.30;;;;;;5108554;28;20079;-79
2023/10/01 09:19:34;;;;;;;1.65;1.10;;;19.10;12.90;;;;;;5106295;28;20138;-78
2023/10/01 09:22:22;;;;;;;2.50;1.38;;;19.20;1.00;;;;;;5111888;28;20059;-78
2023/10/01 09:25:01;;;;;;;0.20;0.20;;;19.50;1.00;;;;;;5106604;28;20403;-77
2023/10/01 09:27:31;;;;;;;0.70;0.50;;;19.90;1.00;;;;;;5086948;28;20051;-79
2023/10/01 09:30:26;;;;;;;1.85;1.05;;;20.30;1.00;;;;;;5104652;28;20070;-78
2023/10/01 09:32:54;;;;;;;14.80;1.67;;;20.60;1.00;;;;;;5105651;28;20500;-79
2023/10/01 09:35:39;;;;;;;2.35;1.38;;;20.90;1.00;;;;;;5092692;28;20043;-79
2023/10/01 09:38:10;;;;;;;1.00;0.93;;;21.10;1.00;;;;;;5097412;28;20040;-79
2023/10/01 09:40:38;;;;;;;0.95;0.88;;;21.30;1.00;;;;;;5104045;28;20360;-79
2023/10/01 09:43:04;;;;;;;7.03;0.80;;;21.40;1.00;;;;;;5104143;28;20503;-80
2023/10/01 09:45:37;;;;;;;3.83;1.10;;;21.50;1.00;;;;;;5103891;28;20089;-78
2023/10/01 09:48:09;;;;;;;2.45;1.70;;;21.50;1.00;;;;;;5095293;28;20135;-78
2023/10/01 09:50:41;;;;;;;1.27;0.93;;;21.40;1.00;;;;;;5100711;28;20032;-78
2023/10/01 09:53:12;;;;;;;0.88;0.35;;;21.30;1.00;;;;;;5072117;28;20045;-77
2023/10/01 09:55:48;;;;;;;0.73;0.73;;;21.20;1.00;;;;;;5096521;28;20040;-78
2023/10/01 09:58:29;;;;;;;1.88;1.73;;;21.20;1.00;;;;;;5073195;28;20073;-78
2023/10/01 10:01:01;;;;;;;3.00;1.25;;;21.20;1.00;;;;;;5107010;28;20047;-78
2023/10/01 10:03:37;;;;;;;0.65;0.52;;;21.00;1.00;;;;;;5099099;28;20040;-78
2023/10/01 10:06:07;;;;;;;2.95;1.73;;;21.00;1.00;;;;;;5106701;28;20039;-78
2023/10/01 10:08:38;;;;;;;2.13;1.20;;;20.80;1.00;;;;;;5103025;28;20088;-78
2023/10/01 10:11:24;;;;;;;0.25;0.25;;;20.80;1.00;;;;;;5102270;28;20482;-78
2023/10/01 10:13:50;;;;;;;2.85;1.58;;;20.60;1.00;;;;;;5098303;28;20044;-78
2023/10/01 10:16:30;;;;;;;2.33;1.90;;;20.60;1.00;;;;;;5103257;28;20075;-78
2023/10/01 10:19:06;;;;;;;1.27;1.17;;;20.80;1.00;;;;;;5103188;28;20051;-78
2023/10/01 10:24:29;;;;;;;3.92;1.40;;;21.20;1.00;;;;;;5101552;28;20044;-78
2023/10/01 10:27:03;;;;;;;1.05;0.90;;;21.60;1.00;;;;;;5103660;28;20054;-78
2023/10/01 10:29:56;;;;;;;1.20;1.03;;;21.90;1.00;;;;;;5101261;28;20584;-78
2023/10/01 10:32:26;;;;;;;2.25;1.33;;;22.30;1.00;;;;;;5099940;28;20297;-78
2023/10/01 10:35:04;;;;;;;1.10;0.68;;;22.30;1.00;;;;;;5096553;28;20396;-78
2023/10/01 10:37:33;;;;;;;0.82;0.82;;;22.60;1.00;;;;;;5096150;28;20413;-78
2023/10/01 10:40:12;;;;;;;0.52;0.52;;;22.80;1.00;;;;;;5100625;28;20115;-78
2023/10/01 10:42:47;;;;;;;0.10;0.10;;;22.80;1.00;;;;;;5103359;28;20051;-78
2023/10/01 10:45:22;;;;;;;1.77;1.58;;;22.70;1.00;;;;;;5108608;28;20143;-78
2023/10/01 10:48:04;;;;;;;1.60;0.60;;;22.50;1.00;;;;;;5102712;28;20067;-78
2023/10/01 10:50:44;;;;;;;1.52;0.60;;;22.40;1.00;;;;;;5105853;28;20071;-78
2023/10/01 10:53:15;;;;;;;3.30;1.92;;;22.30;1.00;;;;;;5099649;28;20081;-78
2023/10/01 10:56:34;;;;;;;1.75;0.95;;;22.20;1.00;;;;;;5113534;28;20457;-78
2023/10/01 10:59:04;;;;;;;1.60;0.98;;;22.00;99.90;;;;;;4993246;28;20065;-78
2023/10/01 11:01:47;;;;;;;1.60;0.95;;;22.00;99.90;;;;;;5009668;28;20418;-78
2023/10/01 11:04:16;;;;;;;1.42;0.63;;;22.10;99.90;;;;;;5060202;28;20144;-78
2023/10/01 11:06:42;;;;;;;0.85;0.60;;;22.00;99.90;;;;;;5081864;28;20052;-77
2023/10/01 11:12:03;;;;;;;1.05;0.93;;;22.00;99.90;;;;;;5106997;28;20063;-78
2023/10/01 11:14:30;;;;;;;1.52;0.80;;;22.00;99.90;;;;;;5078900;28;20392;-77
2023/10/01 11:16:56;;;;;;;10.73;1.73;;;22.10;99.90;;;;;;5095005;28;20089;-78
2023/10/01 11:19:25;;;;;;;1.67;0.85;;;22.20;99.90;;;;;;5101027;28;20515;-77
2023/10/01 11:22:00;;;;;;;1.00;0.68;;;22.10;99.90;;;;;;5095158;28;20441;-77
2023/10/01 11:24:39;;;;;;;1.33;1.13;;;22.30;99.90;;;;;;5100370;28;20088;-77
2023/10/01 11:27:43;;;;;;;1.48;0.90;;;22.50;99.90;;;;;;5101136;28;20069;-76
2023/10/01 11:30:15;;;;;;;0.75;0.70;;;22.30;99.90;;;;;;5093588;28;20374;-77
2023/10/01 11:35:32;;;;;;;0.88;0.80;;;22.20;99.90;;;;;;5080287;28;20127;-77
2023/10/01 11:38:19;;;;;;;1.45;0.77;;;22.20;99.90;;;;;;5101230;28;20050;-77
2023/10/01 11:43:58;;;;;;;0.20;0.20;;;22.40;99.90;;;;;;5098251;28;20458;-78
2023/10/01 11:49:16;;;;;;;0.73;0.73;;;22.70;99.90;;;;;;5092078;28;20155;-78
2023/10/01 11:51:45;;;;;;;1.75;0.38;;;22.80;99.90;;;;;;5098118;28;20485;-77
2023/10/01 11:54:13;;;;;;;1.85;1.25;;;22.70;99.90;;;;;;5101718;28;20051;-78
2023/10/01 11:56:40;;;;;;;1.10;0.52;;;22.80;99.90;;;;;;5083557;28;20516;-77
2023/10/01 11:59:11;;;;;;;0.80;0.55;;;22.80;99.90;;;;;;5098424;28;20044;-77
2023/10/01 12:01:47;;;;;;;3.85;1.17;;;22.70;99.90;;;;;;5098477;28;20048;-78
2023/10/01 12:04:21;;;;;;;1.65;1.55;;;22.70;99.90;;;;;;5099251;28;20155;-77
2023/10/01 12:06:49;;;;;;;1.37;1.27;;;22.80;99.90;;;;;;5098380;28;20048;-78
2023/10/01 12:09:15;;;;;;;0.60;0.60;;;22.90;99.90;;;;;;5102019;28;20051;-77
2023/10/01 12:11:40;;;;;;;0.47;0.47;;;23.00;99.90;;;;;;5100574;28;20047;-77
2023/10/01 12:14:08;;;;;;;1.25;1.02;;;23.00;99.90;;;;;;5100290;28;20122;-77
2023/10/01 12:16:34;;;;;;;2.60;1.52;;;23.10;99.90;;;;;;5097713;28;20040;-77
2023/10/01 12:21:45;;;;;;;0.65;0.65;;;23.20;99.90;;;;;;5090797;28;20052;-77
2023/10/01 12:24:15;;;;;;;3.95;1.85;;;23.30;99.90;;;;;;5097947;28;20048;-77
2023/10/01 12:26:43;;;;;;;3.13;1.05;;;23.30;99.90;;;;;;5102046;28;20048;-77
2023/10/01 12:29:13;;;;;;;2.63;1.98;;;23.10;99.90;;;;;;5101003;28;20124;-78
2023/10/01 12:31:45;;;;;;;1.65;1.10;;;23.10;99.90;;;;;;5097917;28;20079;-77
2023/10/01 12:34:13;;;;;;;1.65;1.10;;;23.10;99.90;;;;;;5099964;28;20075;-77
2023/10/01 12:36:42;;;;;;;0.30;0.30;;;23.30;99.90;;;;;;5099425;28;20082;-78
2023/10/01 12:41:47;;;;;;;6.43;1.70;;;23.60;99.90;;;;;;5099098;28;20352;-78
2023/10/01 12:44:27;;;;;;;1.60;1.10;;;23.80;99.90;;;;;;5098510;28;20391;-77
2023/10/01 12:47:00;;;;;;;1.60;1.33;;;23.80;99.90;;;;;;5101685;28;20051;-77
2023/10/01 12:49:26;;;;;;;3.13;1.27;;;23.70;99.90;;;;;;5086326;28;20054;-77
2023/10/01 12:51:55;;;;;;;2.50;1.23;;;23.70;99.90;;;;;;5104302;28;20036;-78
2023/10/01 12:54:27;;;;;;;15.23;2.20;;;23.80;99.90;;;;;;5093637;28;20294;-78
2023/10/01 12:57:03;;;;;;;2.05;1.20;;;23.90;99.90;;;;;;5098848;28;20435;-78
2023/10/01 12:59:39;;;;;;;3.90;2.05;;;23.90;99.90;;;;;;5106644;28;20039;-78
2023/10/01 13:02:21;;;;;;;0.65;0.63;;;24.00;99.90;;;;;;5098751;28;20123;-78
2023/10/01 13:04:50;;;;;;;1.75;0.98;;;24.10;99.90;;;;;;5107527;28;20171;-78
2023/10/01 13:07:27;;;;;;;0.65;0.52;;;24.20;99.90;;;;;;5095923;28;20088;-78
2023/10/01 13:09:54;;;;;;;1.35;1.08;;;24.20;99.90;;;;;;5103365;28;20055;-78
2023/10/01 13:12:25;;;;;;;1.25;1.15;;;24.30;99.90;;;;;;5107216;28;20044;-78
2023/10/01 13:17:43;;;;;;;1.73;1.10;;;24.50;99.90;;;;;;5098030;28;20101;-78
2023/10/01 13:20:19;;;;;;;1.15;0.73;;;24.60;99.90;;;;;;5104642;28;20111;-78
2023/10/01 13:22:52;;;;;;;7.75;1.35;;;24.50;99.90;;;;;;5107699;28;20450;-78
2023/10/01 13:25:24;;;;;;;0.60;0.55;;;24.50;99.90;;;;;;5105859;28;20138;-78
2023/10/01 13:28:01;;;;;;;1.75;1.02;;;24.60;99.90;;;;;;5103711;28;20135;-78
2023/10/01 13:30:31;;;;;;;5.30;1.70;;;24.60;99.90;;;;;;5104478;28;20040;-79
2023/10/01 13:33:16;;;;;;;0.80;0.60;;;24.50;99.90;;;;;;5104754;28;20086;-77
2023/10/01 13:35:52;;;;;;;1.88;1.10;;;24.40;99.90;;;;;;5108500;28;20112;-78
2023/10/01 13:38:37;;;;;;;2.42;0.95;;;24.40;99.90;;;;;;5108955;28;20032;-78
2023/10/01 14:11:06;;;;;;;2.53;1.38;;;24.50;99.90;;;;;;5105958;28;20428;-78
2023/10/01 14:13:35;;;;;;;3.45;1.20;;;24.70;99.90;;;;;;5107243;28;20043;-78
2023/10/01 14:16:11;;;;;;;8.57;1.67;;;24.80;99.90;;;;;;5089148;28;20040;-78
2023/10/01 14:18:41;;;;;;;2.10;1.25;;;24.90;99.90;;;;;;5104507;28;20044;-78
2023/10/01 14:21:12;;;;;;;2.65;2.03;;;24.80;99.90;;;;;;5104078;28;20488;-78
2023/10/01 14:23:44;;;;;;;1.35;0.75;;;24.60;99.90;;;;;;5103625;28;20048;-78
2023/10/01 14:26:10;;;;;;;0.98;0.82;;;24.40;99.90;;;;;;5103314;28;20485;-78
2023/10/01 14:28:38;;;;;;;2.88;1.75;;;24.30;99.90;;;;;;5103746;28;20128;-78
2023/10/01 14:31:05;;;;;;;3.33;1.48;;;24.20;99.90;;;;;;5103032;28;20093;-78
2023/10/01 14:33:35;;;;;;;1.55;0.88;;;24.00;99.90;;;;;;5087176;28;20039;-78
2023/10/01 14:36:04;;;;;;;1.02;0.88;;;23.70;99.90;;;;;;5100474;28;20051;-77
2023/10/01 14:38:43;;;;;;;4.55;1.90;;;23.60;99.90;;;;;;5103071;28;20565;-78